Time;durP1;ratioP1;P1;durP2;ratioP2;P2;SDS_P1;SDS_P2;PMS_P1;PMS_P2;Temp;Humidity;BMP_temperature;BMP_pressure;BME280_temperature;BME280_humidity;BME280_pressure;Samples;Min_cycle;Max_cycle;Signal;HPM_P1;HPM_P2
2024/02/28 00:00:10;;;;;;;10.88;8.02;;;;;;;7.84;65.57;93783.44;521521;28;777;-69
2024/02/28 00:00:26;;;;;;;10.27;7.93;;;;;;;7.84;65.55;93786.91;521454;28;905;-69
2024/02/28 00:00:41;;;;;;;9.50;7.90;;;;;;;7.84;65.44;93786.19;521553;28;1115;-69
2024/02/28 00:00:56;;;;;;;9.53;8.00;;;;;;;7.85;65.56;93784.91;521492;28;876;-69
2024/02/28 00:01:12;;;;;;;9.35;7.68;;;;;;;7.84;65.46;93786.19;521504;28;774;-69
2024/02/28 00:01:27;;;;;;;8.97;7.77;;;;;;;7.84;65.52;93792.41;521514;28;868;-69
2024/02/28 00:01:50;;;;;;;9.30;8.15;;;;;;;7.85;65.54;93782.16;521514;28;785;-68
2024/02/28 00:02:05;;;;;;;10.13;8.35;;;;;;;7.85;65.65;93782.91;521459;28;848;-68
2024/02/28 00:02:21;;;;;;;11.52;8.57;;;;;;;7.84;65.73;93786.91;521563;28;852;-69
2024/02/28 00:02:36;;;;;;;12.47;8.50;;;;;;;7.84;65.38;93794.44;521505;28;805;-69
2024/02/28 00:02:52;;;;;;;11.52;8.38;;;;;;;7.84;65.47;93788.94;521472;28;808;-69
2024/02/28 00:03:07;;;;;;;10.90;8.83;;;;;;;7.85;65.49;93785.66;521518;28;794;-68
2024/02/28 00:03:23;;;;;;;11.23;9.07;;;;;;;7.85;65.28;93788.41;521580;28;770;-69
2024/02/28 00:03:39;;;;;;;11.75;9.02;;;;;;;7.86;65.28;93786.41;521586;28;829;-68
2024/02/28 00:03:54;;;;;;;12.47;8.90;;;;;;;7.84;65.25;93786.91;521496;28;785;-69
2024/02/28 00:04:10;;;;;;;11.98;8.90;;;;;;;7.81;65.66;93790.72;521590;28;869;-69
2024/02/28 00:04:25;;;;;;;13.37;10.17;;;;;;;7.73;65.91;93791.84;521391;28;1977;-69
2024/02/28 00:04:41;;;;;;;14.57;11.43;;;;;;;7.67;65.85;93791.19;521578;28;857;-69
2024/02/28 00:05:00;;;;;;;14.60;12.40;;;;;;;7.56;66.41;93792.81;521656;28;908;-68
2024/02/28 00:05:15;;;;;;;15.50;13.20;;;;;;;7.41;66.71;93791.78;521502;28;952;-69
2024/02/28 00:05:31;;;;;;;18.47;14.93;;;;;;;7.32;66.88;93787.38;521577;28;841;-69
2024/02/28 00:05:48;;;;;;;21.10;15.50;;;;;;;7.28;67.04;93795.19;521451;28;975;-69
2024/02/28 00:06:03;;;;;;;19.33;14.18;;;;;;;7.26;67.24;93791.47;521552;28;856;-69
2024/02/28 00:06:19;;;;;;;17.00;13.53;;;;;;;7.01;67.46;93757.09;521559;28;786;-68
2024/02/28 00:06:34;;;;;;;17.10;13.68;;;;;;;7.22;67.58;93791.78;521517;28;769;-69
2024/02/28 00:06:50;;;;;;;16.08;13.48;;;;;;;7.22;67.54;93791.03;521564;28;813;-68
2024/02/28 00:07:05;;;;;;;15.70;13.37;;;;;;;7.22;67.65;93791.78;521400;28;762;-69
2024/02/28 00:07:21;;;;;;;15.93;13.33;;;;;;;7.26;67.48;93791.47;521618;28;770;-68
2024/02/28 00:07:36;;;;;;;15.85;13.38;;;;;;;7.29;67.51;93793.94;521544;28;809;-69
2024/02/28 00:07:52;;;;;;;14.67;12.60;;;;;;;7.32;67.37;93792.88;521477;28;817;-69
2024/02/28 00:08:08;;;;;;;12.98;10.93;;;;;;;7.33;67.41;93799.13;521520;28;833;-68
2024/02/28 00:08:23;;;;;;;11.53;9.47;;;;;;;7.34;67.34;93795.84;521472;28;829;-69
2024/02/28 00:08:39;;;;;;;11.32;8.95;;;;;;;7.36;67.23;93798.81;521605;28;895;-69
2024/02/28 00:08:54;;;;;;;12.10;9.17;;;;;;;7.37;67.34;93797.56;521548;28;856;-69
2024/02/28 00:09:11;;;;;;;11.90;9.00;;;;;;;7.39;67.08;93794.28;521672;28;821;-69
2024/02/28 00:09:26;;;;;;;10.98;9.05;;;;;;;7.40;66.82;93799.28;521529;28;904;-68
2024/02/28 00:09:42;;;;;;;11.13;9.23;;;;;;;7.42;66.88;93793.25;521489;28;996;-69
2024/02/28 00:09:58;;;;;;;11.07;8.85;;;;;;;7.43;66.73;93797.47;521461;28;794;-69
2024/02/28 00:10:14;;;;;;;11.65;9.00;;;;;;;7.44;66.80;93799.72;521549;28;892;-69
2024/02/28 00:10:29;;;;;;;12.52;9.20;;;;;;;7.37;66.68;93789.34;521621;28;1091;-69
2024/02/28 00:10:45;;;;;;;12.10;9.30;;;;;;;7.45;66.75;93803.94;521497;28;751;-69
2024/02/28 00:11:00;;;;;;;11.82;9.43;;;;;;;7.45;66.71;93801.19;521577;28;908;-69
2024/02/28 00:11:15;;;;;;;13.40;9.23;;;;;;;7.46;66.87;93799.19;521427;28;754;-69
2024/02/28 00:11:32;;;;;;;13.25;9.60;;;;;;;7.47;66.76;93797.94;521655;28;1104;-69
2024/02/28 00:11:47;;;;;;;13.40;10.45;;;;;;;7.47;66.75;93800.69;521430;28;829;-69
2024/02/28 00:12:03;;;;;;;13.68;10.35;;;;;;;7.49;66.78;93798.91;521569;28;789;-69
2024/02/28 00:12:18;;;;;;;14.60;10.57;;;;;;;7.50;66.92;93802.38;521547;28;813;-69
2024/02/28 00:12:34;;;;;;;14.80;10.32;;;;;;;7.49;66.89;93798.16;521421;28;790;-69
2024/02/28 00:12:49;;;;;;;12.93;9.73;;;;;;;7.50;66.87;93800.38;521515;28;864;-69
2024/02/28 00:13:05;;;;;;;12.65;9.70;;;;;;;7.49;66.81;93801.63;521465;28;818;-69
2024/02/28 00:13:23;;;;;;;13.90;9.80;;;;;;;7.51;66.88;93801.13;521635;28;852;-69
2024/02/28 00:13:38;;;;;;;12.73;9.48;;;;;;;7.51;66.91;93812.84;521515;28;885;-69
2024/02/28 00:13:53;;;;;;;12.53;9.40;;;;;;;7.51;66.70;93796.38;521501;28;788;-69
2024/02/28 00:14:09;;;;;;;12.93;9.20;;;;;;;7.51;66.77;93799.13;521582;28;754;-69
2024/02/28 00:14:24;;;;;;;13.10;9.60;;;;;;;7.52;66.67;93805.34;521508;28;884;-69
2024/02/28 00:14:40;;;;;;;12.88;10.27;;;;;;;7.52;66.56;93806.09;521597;28;821;-69
2024/02/28 00:14:55;;;;;;;11.77;9.40;;;;;;;7.53;66.37;93795.88;521391;28;865;-69
2024/02/28 00:15:11;;;;;;;11.00;8.80;;;;;;;7.53;66.37;93799.38;521598;28;912;-69
2024/02/28 00:15:26;;;;;;;11.90;9.18;;;;;;;7.54;66.65;93800.84;521473;28;774;-69
2024/02/28 00:15:42;;;;;;;11.90;9.00;;;;;;;7.54;66.53;93798.09;521528;28;825;-69
2024/02/28 00:15:57;;;;;;;11.00;8.80;;;;;;;7.54;66.48;93800.84;521516;28;869;-69
2024/02/28 00:16:12;;;;;;;11.03;9.47;;;;;;;7.55;66.50;93801.59;521558;28;758;-69
2024/02/28 00:16:28;;;;;;;12.43;9.77;;;;;;;7.55;66.41;93801.59;521550;28;782;-69
2024/02/28 00:16:44;;;;;;;11.43;8.93;;;;;;;7.54;66.53;93803.59;521408;28;809;-69
2024/02/28 00:17:00;;;;;;;9.80;8.50;;;;;;;7.53;66.53;93799.38;521560;28;1020;-69
2024/02/28 00:17:15;;;;;;;10.32;8.75;;;;;;;7.54;66.76;93802.84;521513;28;1015;-69
2024/02/28 00:17:30;;;;;;;11.63;9.03;;;;;;;7.53;66.53;93807.59;521588;28;805;-69
2024/02/28 00:17:46;;;;;;;12.50;9.27;;;;;;;7.54;66.73;93802.84;521465;28;889;-69
2024/02/28 00:18:03;;;;;;;13.40;9.23;;;;;;;7.52;66.68;93799.88;521545;28;766;-69
2024/02/28 00:18:19;;;;;;;11.93;9.07;;;;;;;7.49;66.53;93807.13;521515;28;893;-69
2024/02/28 00:18:34;;;;;;;11.32;9.35;;;;;;;7.48;66.50;93804.91;521473;28;852;-69
2024/02/28 00:18:50;;;;;;;10.50;8.97;;;;;;;7.45;66.61;93801.19;521520;28;794;-69
2024/02/28 00:19:05;;;;;;;9.82;8.43;;;;;;;7.44;66.61;93799.72;521453;28;900;-69
2024/02/28 00:19:22;;;;;;;11.90;8.48;;;;;;;7.46;66.70;93804.69;521483;28;809;-69
2024/02/28 00:19:37;;;;;;;12.68;9.18;;;;;;;7.45;66.49;93803.22;521142;28;901;-69
2024/02/28 00:19:53;;;;;;;11.17;9.50;;;;;;;7.44;66.41;93804.47;521201;28;798;-69
2024/02/28 00:20:09;;;;;;;11.77;9.35;;;;;;;7.45;66.60;93805.97;521277;28;770;-69
2024/02/28 00:20:27;;;;;;;12.90;10.30;;;;;;;7.46;66.74;93813.69;521520;28;829;-69
2024/02/28 00:20:44;;;;;;;13.68;10.65;;;;;;;7.47;66.97;93806.19;521511;28;888;-69
2024/02/28 00:21:00;;;;;;;13.38;10.02;;;;;;;7.47;66.77;93808.94;521475;28;829;-69
2024/02/28 00:21:15;;;;;;;11.90;10.23;;;;;;;7.46;66.88;93808.19;521503;28;885;-69
2024/02/28 00:21:30;;;;;;;13.27;9.80;;;;;;;7.32;66.87;93781.91;521484;28;750;-69
2024/02/28 00:21:46;;;;;;;14.25;9.20;;;;;;;7.49;67.10;93814.66;521487;28;766;-69
2024/02/28 00:22:01;;;;;;;12.43;8.73;;;;;;;7.49;66.87;93811.91;521561;28;832;-69
2024/02/28 00:22:17;;;;;;;10.70;8.37;;;;;;;7.49;66.69;93809.88;521366;28;754;-69
2024/02/28 00:22:32;;;;;;;11.35;8.55;;;;;;;7.50;66.65;93807.88;521517;28;781;-69
2024/02/28 00:22:48;;;;;;;9.80;8.23;;;;;;;7.51;66.51;93809.38;521484;28;746;-69
2024/02/28 00:23:03;;;;;;;8.82;7.90;;;;;;;7.50;66.54;93807.88;521523;28;914;-69
2024/02/28 00:23:19;;;;;;;10.30;8.27;;;;;;;7.50;66.18;93810.63;521539;28;912;-69
2024/02/28 00:23:34;;;;;;;13.60;8.57;;;;;;;7.47;66.41;93804.16;521453;28;797;-69
2024/02/28 00:23:50;;;;;;;12.97;8.57;;;;;;;7.50;66.13;93816.13;521451;28;821;-69
2024/02/28 00:24:06;;;;;;;10.82;8.70;;;;;;;7.50;66.01;93814.13;521512;28;1136;-69
2024/02/28 00:24:22;;;;;;;11.93;9.05;;;;;;;7.49;65.88;93806.41;521399;28;1981;-69
2024/02/28 00:24:37;;;;;;;10.60;8.07;;;;;;;7.50;65.79;93814.13;521459;28;842;-69
2024/02/28 00:24:52;;;;;;;8.63;7.43;;;;;;;7.50;65.70;93811.38;521496;28;1112;-69
2024/02/28 00:25:09;;;;;;;9.07;7.70;;;;;;;7.50;65.60;93808.63;521468;28;801;-69
2024/02/28 00:25:25;;;;;;;9.40;7.50;;;;;;;7.50;65.41;93807.88;521393;28;873;-69
2024/02/28 00:25:41;;;;;;;8.60;7.30;;;;;;;7.49;65.50;93809.88;521659;28;841;-69
2024/02/28 00:25:56;;;;;;;10.45;7.68;;;;;;;7.49;65.21;93817.41;521486;28;840;-69
2024/02/28 00:26:12;;;;;;;11.23;8.07;;;;;;;7.47;64.96;93814.44;521576;28;904;-69
2024/02/28 00:26:27;;;;;;;10.40;8.32;;;;;;;7.46;64.99;93812.94;521346;28;797;-69
2024/02/28 00:26:43;;;;;;;11.97;8.80;;;;;;;7.46;64.95;93810.19;521473;28;888;-69
2024/02/28 00:26:58;;;;;;;12.00;9.02;;;;;;;7.45;65.28;93814.22;521501;28;1028;-69
2024/02/28 00:27:14;;;;;;;11.47;9.33;;;;;;;7.45;65.11;93806.69;521484;28;793;-69
2024/02/28 00:27:29;;;;;;;14.63;10.90;;;;;;;7.47;65.16;93808.94;521578;28;782;-69
2024/02/28 00:27:45;;;;;;;16.93;12.57;;;;;;;7.46;65.18;93813.69;521444;28;813;-69
2024/02/28 00:28:01;;;;;;;16.73;12.70;;;;;;;7.46;65.15;93812.94;521518;28;866;-69
2024/02/28 00:28:16;;;;;;;17.63;12.80;;;;;;;7.45;65.07;93812.19;521513;28;793;-69
2024/02/28 00:28:32;;;;;;;18.00;13.57;;;;;;;7.45;65.05;93812.19;521568;28;785;-69
2024/02/28 00:28:47;;;;;;;17.80;13.57;;;;;;;7.45;65.16;93812.19;521417;28;770;-69
2024/02/28 00:29:03;;;;;;;18.13;14.10;;;;;;;7.45;65.03;93808.72;521591;28;790;-69
2024/02/28 00:29:18;;;;;;;19.58;15.63;;;;;;;7.44;65.15;93805.22;521396;28;786;-69
2024/02/28 00:29:34;;;;;;;20.30;16.17;;;;;;;7.41;65.31;93814.50;521515;28;876;-69
2024/02/28 00:29:49;;;;;;;20.77;16.17;;;;;;;7.39;65.12;93808.03;521482;28;798;-69
2024/02/28 00:30:08;;;;;;;23.27;16.93;;;;;;;7.34;65.26;93806.13;521502;28;770;-69
2024/02/28 00:30:23;;;;;;;24.65;17.95;;;;;;;7.30;65.35;93805.66;521522;28;852;-69
2024/02/28 00:30:41;;;;;;;23.90;18.27;;;;;;;7.28;65.27;93806.16;521460;28;838;-69
2024/02/28 00:30:56;;;;;;;24.35;17.23;;;;;;;7.30;65.40;93808.38;521484;28;849;-69
2024/02/28 00:31:12;;;;;;;20.17;14.93;;;;;;;7.31;65.44;93807.16;521537;28;825;-69
2024/02/28 00:31:27;;;;;;;18.73;14.20;;;;;;;7.31;65.24;93805.16;521476;28;813;-69
2024/02/28 00:31:43;;;;;;;19.35;14.57;;;;;;;7.32;65.20;93811.38;521514;28;798;-69
2024/02/28 00:31:58;;;;;;;20.13;15.05;;;;;;;7.32;65.04;93806.63;521386;28;884;-69
2024/02/28 00:32:13;;;;;;;19.33;14.97;;;;;;;7.33;64.91;93810.13;521535;28;801;-69
2024/02/28 00:32:29;;;;;;;18.97;15.00;;;;;;;7.31;64.88;93807.91;521536;28;750;-69
2024/02/28 00:32:44;;;;;;;21.38;15.02;;;;;;;7.28;64.98;93808.91;521492;28;861;-69
2024/02/28 00:33:00;;;;;;;22.00;15.10;;;;;;;7.26;65.36;93802.47;521550;28;865;-69
2024/02/28 00:33:15;;;;;;;22.73;15.23;;;;;;;7.11;65.60;93800.16;521473;28;920;-69
2024/02/28 00:33:31;;;;;;;21.90;15.10;;;;;;;7.09;65.88;93807.41;521516;28;853;-69
2024/02/28 00:33:47;;;;;;;19.42;15.23;;;;;;;7.05;65.89;93804.22;521432;28;951;-69
2024/02/28 00:34:02;;;;;;;19.43;15.37;;;;;;;7.06;66.18;93808.47;521548;28;793;-69
2024/02/28 00:34:17;;;;;;;19.85;15.98;;;;;;;7.06;66.26;93802.97;521472;28;917;-69
2024/02/28 00:34:33;;;;;;;20.97;16.23;;;;;;;7.07;65.92;93809.94;521487;28;812;-69
2024/02/28 00:34:48;;;;;;;21.83;15.82;;;;;;;7.09;66.15;93801.91;521412;28;1607;-69
2024/02/28 00:35:04;;;;;;;20.67;15.83;;;;;;;7.10;66.22;93808.91;521558;28;1113;-69
2024/02/28 00:35:20;;;;;;;22.55;17.33;;;;;;;7.13;66.12;93810.59;521556;28;885;-69
2024/02/28 00:35:35;;;;;;;23.30;18.10;;;;;;;7.13;66.13;93808.59;521491;28;794;-69
2024/02/28 00:35:53;;;;;;;21.70;17.97;;;;;;;7.16;66.26;93812.31;521475;28;824;-68
2024/02/28 00:36:08;;;;;;;23.23;18.33;;;;;;;7.18;66.06;93810.56;521484;28;825;-69
2024/02/28 00:36:24;;;;;;;23.37;18.03;;;;;;;7.18;66.14;93810.56;521499;28;1026;-69
2024/02/28 00:36:39;;;;;;;22.73;17.92;;;;;;;7.19;66.11;93809.28;521493;28;766;-68
2024/02/28 00:36:55;;;;;;;21.93;16.97;;;;;;;7.19;65.81;93811.31;521508;28;794;-69
2024/02/28 00:37:10;;;;;;;21.57;15.60;;;;;;;7.19;65.97;93806.53;521562;28;916;-69
2024/02/28 00:37:26;;;;;;;20.73;15.25;;;;;;;7.19;65.81;93806.53;521462;28;786;-69
2024/02/28 00:37:41;;;;;;;18.30;14.73;;;;;;;7.18;65.98;93813.28;521522;28;884;-69
2024/02/28 00:37:57;;;;;;;18.73;15.02;;;;;;;7.16;65.99;93804.09;521422;28;860;-69
2024/02/28 00:38:12;;;;;;;19.60;15.30;;;;;;;7.14;65.95;93807.38;521535;28;1019;-69
2024/02/28 00:38:27;;;;;;;20.08;15.25;;;;;;;7.14;66.11;93807.38;521470;28;885;-69
2024/02/28 00:38:43;;;;;;;20.67;15.47;;;;;;;7.14;66.11;93806.63;521497;28;797;-69
2024/02/28 00:38:58;;;;;;;21.00;15.43;;;;;;;7.13;66.08;93802.38;521449;28;786;-69
2024/02/28 00:39:14;;;;;;;21.97;15.97;;;;;;;7.11;66.46;93807.63;521539;28;837;-68
2024/02/28 00:39:29;;;;;;;20.57;16.03;;;;;;;7.08;66.58;93805.94;521571;28;869;-69
2024/02/28 00:39:45;;;;;;;20.05;15.43;;;;;;;7.05;66.69;93807.72;521413;28;790;-69
2024/02/28 00:40:01;;;;;;;19.83;14.52;;;;;;;7.03;66.70;93804.00;521581;28;798;-69
2024/02/28 00:40:16;;;;;;;19.73;14.57;;;;;;;6.99;66.81;93806.28;521416;28;885;-69
2024/02/28 00:40:31;;;;;;;19.98;15.07;;;;;;;6.95;67.21;93801.09;521615;28;822;-68
2024/02/28 00:40:47;;;;;;;18.80;14.60;;;;;;;6.93;67.32;93805.63;521355;28;932;-69
2024/02/28 00:41:02;;;;;;;19.73;15.15;;;;;;;6.90;67.38;93810.13;521555;28;818;-69
2024/02/28 00:41:18;;;;;;;20.90;15.83;;;;;;;6.90;67.33;93807.38;521520;28;778;-69
2024/02/28 00:41:33;;;;;;;19.90;15.55;;;;;;;6.91;67.49;93805.41;521394;28;793;-69
2024/02/28 00:41:49;;;;;;;18.90;15.17;;;;;;;6.91;67.52;93803.38;521406;28;872;-69
2024/02/28 00:42:04;;;;;;;19.67;15.23;;;;;;;6.92;67.53;93804.88;521462;28;913;-69
2024/02/28 00:42:20;;;;;;;20.00;14.97;;;;;;;6.93;67.39;93808.38;521547;28;794;-69
2024/02/28 00:42:35;;;;;;;20.20;14.63;;;;;;;6.94;67.45;93807.09;521515;28;872;-69
2024/02/28 00:42:51;;;;;;;19.73;14.60;;;;;;;6.95;67.54;93805.84;521524;28;856;-69
2024/02/28 00:43:06;;;;;;;20.35;14.50;;;;;;;6.96;67.56;93802.56;521388;28;857;-69
2024/02/28 00:43:22;;;;;;;20.73;14.40;;;;;;;6.97;67.54;93801.31;521500;28;865;-69
2024/02/28 00:43:37;;;;;;;19.50;14.70;;;;;;;6.98;67.57;93802.78;521457;28;920;-69
2024/02/28 00:43:53;;;;;;;18.60;14.38;;;;;;;6.98;67.49;93805.53;521484;28;782;-69
2024/02/28 00:44:08;;;;;;;18.37;14.00;;;;;;;6.99;67.50;93809.03;521516;28;846;-69
2024/02/28 00:44:24;;;;;;;18.10;14.40;;;;;;;6.95;67.67;93806.59;519695;28;1977;-69
2024/02/28 00:44:42;;;;;;;17.92;14.45;;;;;;;6.90;67.68;93807.38;519309;28;853;-69
2024/02/28 00:44:57;;;;;;;21.40;15.27;;;;;;;6.84;67.84;93809.47;519383;28;983;-69
2024/02/28 00:45:13;;;;;;;25.30;16.53;;;;;;;6.76;67.99;93805.78;519525;28;940;-69
2024/02/28 00:45:28;;;;;;;25.97;17.90;;;;;;;6.71;68.25;93803.88;519560;28;878;-69
2024/02/28 00:45:44;;;;;;;24.83;18.33;;;;;;;6.66;68.35;93807.41;519438;28;861;-69
2024/02/28 00:45:59;;;;;;;23.57;18.37;;;;;;;6.63;68.37;93805.66;519406;28;861;-69
2024/02/28 00:46:15;;;;;;;27.13;19.48;;;;;;;6.62;68.54;93807.69;519602;28;842;-69
2024/02/28 00:46:30;;;;;;;28.60;19.80;;;;;;;6.64;68.45;93812.66;519486;28;861;-69
2024/02/28 00:46:46;;;;;;;27.08;19.63;;;;;;;6.47;68.51;93788.16;519384;28;920;-69
2024/02/28 00:47:01;;;;;;;26.30;18.93;;;;;;;6.66;68.42;93810.88;519550;28;790;-69
2024/02/28 00:47:16;;;;;;;25.23;18.75;;;;;;;6.68;68.39;93813.09;520393;28;1223;-69
2024/02/28 00:47:32;;;;;;;24.03;18.63;;;;;;;6.68;68.33;93811.13;521484;28;853;-69
2024/02/28 00:47:47;;;;;;;23.73;18.07;;;;;;;6.67;68.21;93809.63;521404;28;865;-69
2024/02/28 00:48:03;;;;;;;25.60;18.75;;;;;;;6.69;67.97;93814.59;521543;28;873;-69
2024/02/28 00:48:18;;;;;;;23.00;18.52;;;;;;;6.67;68.03;93809.63;521486;28;915;-69
2024/02/28 00:48:34;;;;;;;21.43;18.43;;;;;;;6.64;67.95;93809.91;521447;28;833;-69
2024/02/28 00:48:49;;;;;;;23.27;18.95;;;;;;;6.59;68.04;93808.72;521312;28;1442;-69
2024/02/28 00:49:05;;;;;;;22.80;18.20;;;;;;;6.59;68.35;93807.97;521485;28;802;-69
2024/02/28 00:49:20;;;;;;;23.10;17.90;;;;;;;6.59;68.12;93810.69;521510;28;817;-68
2024/02/28 00:49:37;;;;;;;22.67;17.27;;;;;;;6.63;68.14;93811.16;521433;28;809;-69
2024/02/28 00:49:52;;;;;;;20.20;16.63;;;;;;;6.63;68.19;93808.41;521498;28;912;-69
2024/02/28 00:50:08;;;;;;;20.17;16.63;;;;;;;6.60;68.17;93810.22;521415;28;794;-69
2024/02/28 00:50:23;;;;;;;21.55;16.52;;;;;;;6.60;68.19;93809.47;521540;28;798;-69
2024/02/28 00:50:39;;;;;;;22.93;16.77;;;;;;;6.60;68.24;93810.22;521475;28;888;-69
2024/02/28 00:50:55;;;;;;;23.77;17.17;;;;;;;6.60;68.25;93806.72;521413;28;762;-69
2024/02/28 00:51:10;;;;;;;22.92;16.92;;;;;;;6.62;68.15;93812.44;521541;28;893;-69
2024/02/28 00:51:25;;;;;;;18.85;15.13;;;;;;;6.63;68.14;93811.16;521332;28;778;-69
2024/02/28 00:51:41;;;;;;;20.37;14.53;;;;;;;6.63;68.16;93811.16;521395;28;762;-69
2024/02/28 00:51:56;;;;;;;20.47;13.90;;;;;;;6.63;68.00;93809.16;521430;28;873;-69
2024/02/28 00:52:12;;;;;;;18.13;14.18;;;;;;;6.62;67.95;93812.44;521517;28;766;-69
2024/02/28 00:52:27;;;;;;;20.10;15.70;;;;;;;6.60;67.88;93803.97;521477;28;856;-69
2024/02/28 00:52:43;;;;;;;20.40;15.57;;;;;;;6.60;67.87;93807.47;521404;28;818;-69
2024/02/28 00:52:59;;;;;;;19.80;15.07;;;;;;;6.60;67.93;93803.97;521465;28;784;-69
2024/02/28 00:53:14;;;;;;;18.63;15.13;;;;;;;6.61;68.08;93802.69;521494;28;845;-69
2024/02/28 00:53:29;;;;;;;17.83;14.98;;;;;;;6.63;67.87;93806.41;521528;28;763;-69
2024/02/28 00:53:45;;;;;;;19.23;14.40;;;;;;;6.65;68.13;93808.63;521449;28;864;-69
2024/02/28 00:54:00;;;;;;;18.50;14.67;;;;;;;6.66;67.73;93810.13;521530;28;778;-69
2024/02/28 00:54:16;;;;;;;17.80;14.83;;;;;;;6.67;67.91;93803.41;521448;28;766;-69
2024/02/28 00:54:31;;;;;;;17.77;14.27;;;;;;;6.68;67.99;93807.63;521502;28;747;-69
2024/02/28 00:54:47;;;;;;;17.00;13.90;;;;;;;6.67;67.78;93806.88;521471;28;900;-69
2024/02/28 00:55:04;;;;;;;18.17;14.47;;;;;;;6.69;67.88;93809.13;521529;28;1074;-69
2024/02/28 00:55:20;;;;;;;20.55;15.30;;;;;;;6.68;67.87;93805.63;521502;28;919;-69
2024/02/28 00:55:35;;;;;;;20.87;15.10;;;;;;;6.66;67.73;93805.41;521410;28;802;-69
2024/02/28 00:55:51;;;;;;;18.85;13.93;;;;;;;6.66;67.80;93810.13;521465;28;817;-69
2024/02/28 00:56:07;;;;;;;16.58;12.98;;;;;;;6.63;68.08;93811.91;521534;28;854;-69
2024/02/28 00:56:24;;;;;;;14.33;12.23;;;;;;;6.64;67.99;93815.41;521518;28;854;-69
2024/02/28 00:56:39;;;;;;;15.82;11.82;;;;;;;6.62;68.02;93804.94;521412;28;990;-69
2024/02/28 00:56:55;;;;;;;15.13;11.70;;;;;;;6.63;68.10;93816.66;521343;28;872;-69
2024/02/28 00:57:10;;;;;;;14.10;11.43;;;;;;;6.63;68.21;93809.16;521555;28;837;-68
2024/02/28 00:57:26;;;;;;;15.18;11.73;;;;;;;6.63;68.35;93816.66;521338;28;865;-69
2024/02/28 00:57:41;;;;;;;17.50;12.63;;;;;;;6.62;68.26;93806.94;521476;28;869;-69
2024/02/28 00:57:56;;;;;;;18.17;12.65;;;;;;;6.60;68.43;93807.47;521419;28;778;-69
2024/02/28 00:58:12;;;;;;;15.80;11.53;;;;;;;6.61;68.27;93808.19;521438;28;924;-68
2024/02/28 00:58:29;;;;;;;13.03;10.20;;;;;;;6.61;68.49;93810.94;521393;28;908;-69
2024/02/28 00:58:45;;;;;;;12.45;10.00;;;;;;;6.63;68.35;93813.91;521407;28;855;-69
2024/02/28 00:59:00;;;;;;;15.40;10.20;;;;;;;6.62;68.36;93804.19;521514;28;820;-69
2024/02/28 00:59:16;;;;;;;14.55;9.77;;;;;;;6.60;68.38;93809.47;521476;28;920;-69
2024/02/28 00:59:31;;;;;;;12.03;9.50;;;;;;;6.60;68.31;93812.94;521495;28;798;-68
2024/02/28 00:59:47;;;;;;;11.73;9.75;;;;;;;6.59;68.33;93814.19;521351;28;884;-69
2024/02/28 01:00:03;;;;;;;12.27;9.63;;;;;;;6.59;68.19;93816.19;521565;28;841;-69
2024/02/28 01:00:18;;;;;;;12.45;9.55;;;;;;;6.60;67.93;93806.72;521447;28;834;-69
2024/02/28 01:00:34;;;;;;;13.43;9.90;;;;;;;6.62;68.30;93812.44;521456;28;817;-69
2024/02/28 01:00:50;;;;;;;12.35;9.43;;;;;;;6.62;68.31;93815.19;521475;28;841;-69
2024/02/28 01:01:07;;;;;;;10.97;8.93;;;;;;;6.63;68.03;93811.91;521401;28;762;-68
2024/02/28 01:01:22;;;;;;;13.13;9.25;;;;;;;6.65;68.07;93814.13;521454;28;1020;-69
2024/02/28 01:01:38;;;;;;;15.55;9.75;;;;;;;6.67;67.91;93811.63;521490;28;802;-69
2024/02/28 01:01:53;;;;;;;14.27;9.30;;;;;;;6.68;67.77;93813.09;521416;28;868;-69
2024/02/28 01:02:08;;;;;;;11.90;8.25;;;;;;;6.68;67.58;93811.13;521500;28;770;-68
2024/02/28 01:02:24;;;;;;;10.93;8.30;;;;;;;6.67;67.41;93812.34;521378;28;916;-68
2024/02/28 01:02:41;;;;;;;11.37;9.47;;;;;;;6.43;67.31;93773.22;521539;28;826;-68
2024/02/28 01:02:56;;;;;;;12.40;9.75;;;;;;;6.67;66.99;93815.09;521399;28;928;-69
2024/02/28 01:03:14;;;;;;;11.50;9.07;;;;;;;6.67;66.79;93815.09;521533;28;770;-69
2024/02/28 01:03:30;;;;;;;12.02;9.30;;;;;;;6.69;66.36;93814.59;521543;28;849;-68
2024/02/28 01:03:45;;;;;;;11.83;9.63;;;;;;;6.68;66.23;93813.84;521408;28;786;-69
2024/02/28 01:04:00;;;;;;;14.10;10.67;;;;;;;6.66;66.38;93813.63;521496;28;888;-69
2024/02/28 01:04:16;;;;;;;14.00;10.70;;;;;;;6.63;66.51;93816.66;521478;28;790;-69
2024/02/28 01:04:31;;;;;;;13.87;10.07;;;;;;;6.55;66.85;93811.00;521374;28;1914;-68
2024/02/28 01:04:47;;;;;;;14.95;10.30;;;;;;;6.50;66.96;93816.53;521434;28;782;-68
2024/02/28 01:05:02;;;;;;;15.80;10.90;;;;;;;6.42;67.20;93816.34;521548;28;759;-68
2024/02/28 01:05:18;;;;;;;14.32;10.85;;;;;;;6.38;67.48;93812.41;521382;28;810;-68
2024/02/28 01:05:33;;;;;;;13.27;10.40;;;;;;;6.33;67.71;93816.69;521441;28;865;-68
2024/02/28 01:05:50;;;;;;;15.30;11.18;;;;;;;6.28;67.93;93820.22;521458;28;805;-69
2024/02/28 01:06:06;;;;;;;16.27;11.57;;;;;;;6.25;68.10;93817.75;521422;28;822;-68
2024/02/28 01:06:21;;;;;;;16.17;11.13;;;;;;;6.21;68.26;93815.31;521540;28;750;-69
2024/02/28 01:06:38;;;;;;;14.17;10.73;;;;;;;6.17;68.59;93816.84;521373;28;1101;-68
2024/02/28 01:06:53;;;;;;;12.25;10.68;;;;;;;6.16;68.56;93818.09;521380;28;995;-69
2024/02/28 01:07:09;;;;;;;12.33;10.53;;;;;;;6.16;68.54;93821.56;521502;28;790;-69
2024/02/28 01:07:24;;;;;;;13.25;10.55;;;;;;;6.16;68.81;93818.84;521463;28;842;-69
2024/02/28 01:07:39;;;;;;;13.73;10.50;;;;;;;6.18;68.70;93821.81;521497;28;818;-69
2024/02/28 01:07:55;;;;;;;14.07;10.93;;;;;;;6.22;68.79;93816.03;521377;28;815;-68
2024/02/28 01:08:10;;;;;;;14.33;11.30;;;;;;;6.23;68.37;93812.03;521534;28;781;-69
2024/02/28 01:08:26;;;;;;;14.45;11.25;;;;;;;6.27;68.34;93820.72;519251;28;814;-69
2024/02/28 01:08:41;;;;;;;14.47;11.30;;;;;;;6.30;68.64;93820.47;519216;28;841;-69
2024/02/28 01:08:57;;;;;;;13.90;10.98;;;;;;;6.31;68.63;93818.44;519200;28;933;-69
2024/02/28 01:09:12;;;;;;;15.13;10.87;;;;;;;6.34;68.71;93817.44;519269;28;825;-68
2024/02/28 01:09:28;;;;;;;14.30;10.77;;;;;;;6.35;68.75;93818.91;519192;28;1017;-69
2024/02/28 01:09:44;;;;;;;13.57;10.37;;;;;;;6.35;68.83;93818.91;519243;28;750;-69
2024/02/28 01:09:59;;;;;;;14.60;10.43;;;;;;;6.35;68.78;93818.91;519267;28;901;-69
2024/02/28 01:10:15;;;;;;;15.05;9.95;;;;;;;6.34;68.89;93815.44;519686;28;770;-69
2024/02/28 01:10:30;;;;;;;14.53;9.47;;;;;;;6.33;69.06;93822.16;521525;28;754;-68
2024/02/28 01:10:46;;;;;;;13.70;9.77;;;;;;;6.32;69.17;93817.22;521318;28;845;-69
2024/02/28 01:11:01;;;;;;;14.52;9.98;;;;;;;6.30;69.27;93822.47;521491;28;854;-69
2024/02/28 01:11:17;;;;;;;14.07;9.77;;;;;;;6.26;69.19;93816.53;521470;28;869;-69
2024/02/28 01:11:32;;;;;;;13.50;9.60;;;;;;;6.24;69.54;93822.50;521544;28;853;-69
2024/02/28 01:11:48;;;;;;;13.05;9.77;;;;;;;6.21;69.45;93811.81;521369;28;782;-68
2024/02/28 01:12:03;;;;;;;12.23;9.63;;;;;;;6.17;70.02;93816.84;521434;28;746;-68
2024/02/28 01:12:19;;;;;;;11.45;9.13;;;;;;;6.13;69.78;93819.13;521414;28;865;-69
2024/02/28 01:12:34;;;;;;;12.07;9.20;;;;;;;6.11;70.04;93817.63;521471;28;786;-69
2024/02/28 01:12:50;;;;;;;13.30;9.82;;;;;;;6.12;69.93;93818.38;521432;28;868;-69
2024/02/28 01:13:05;;;;;;;13.93;10.17;;;;;;;6.13;70.35;93821.88;521406;28;830;-69
2024/02/28 01:13:21;;;;;;;13.77;10.27;;;;;;;6.13;70.14;93823.34;521540;28;837;-69
2024/02/28 01:13:36;;;;;;;12.98;10.02;;;;;;;6.15;70.29;93822.81;521407;28;801;-69
2024/02/28 01:13:51;;;;;;;11.93;9.43;;;;;;;6.15;70.40;93817.34;521408;28;786;-69
2024/02/28 01:14:07;;;;;;;13.20;9.75;;;;;;;6.17;70.23;93823.06;521497;28;857;-68
2024/02/28 01:14:22;;;;;;;13.83;10.03;;;;;;;6.19;70.03;93820.56;521489;28;917;-69
2024/02/28 01:14:38;;;;;;;12.82;9.85;;;;;;;6.21;70.12;93825.53;521463;28;829;-68
2024/02/28 01:14:53;;;;;;;11.77;9.17;;;;;;;6.22;70.04;93816.03;521337;28;873;-68
2024/02/28 01:15:09;;;;;;;11.27;9.15;;;;;;;6.22;70.06;93825.00;521563;28;841;-69
2024/02/28 01:15:24;;;;;;;10.90;9.47;;;;;;;6.23;69.94;93821.03;521405;28;765;-69
2024/02/28 01:15:43;;;;;;;11.88;9.45;;;;;;;6.26;69.87;93824.75;521473;28;798;-69
2024/02/28 01:15:59;;;;;;;12.25;9.15;;;;;;;6.27;69.80;93832.44;521425;28;885;-69